Time;durP1;ratioP1;P1;durP2;ratioP2;P2;SDS_P1;SDS_P2;PMS_P1;PMS_P2;Temp;Humidity;BMP_temperature;BMP_pressure;BME280_temperature;BME280_humidity;BME280_pressure;Samples;Min_cycle;Max_cycle;Signal;HPM_P1;HPM_P2
2023/03/24 00:01:49;;;;;;;;;;;10.90;99.90;;;;;;5051564;28;19924;-78
2023/03/24 00:04:15;;;;;;;;;;;10.90;99.90;;;;;;5045920;28;19921;-78
2023/03/24 00:06:42;;;;;;;;;;;10.90;99.90;;;;;;5029424;28;19921;-78
2023/03/24 00:09:08;;;;;;;;;;;10.90;99.90;;;;;;5030198;28;20004;-79
2023/03/24 00:11:34;;;;;;;;;;;11.00;99.90;;;;;;5039216;28;20011;-78
2023/03/24 00:14:00;;;;;;;;;;;11.00;99.90;;;;;;5030513;28;20374;-79
2023/03/24 00:16:26;;;;;;;;;;;11.00;99.90;;;;;;5009717;28;19924;-79
2023/03/24 00:18:51;;;;;;;;;;;11.00;99.90;;;;;;5034997;28;20338;-78
2023/03/24 00:21:20;;;;;;;;;;;11.00;99.90;;;;;;5039076;28;19986;-78
2023/03/24 00:23:46;;;;;;;;;;;11.00;99.90;;;;;;5040035;28;20008;-78
2023/03/24 00:26:15;;;;;;;;;;;10.90;99.90;;;;;;5028790;28;19927;-78
2023/03/24 00:28:42;;;;;;;;;;;10.90;99.90;;;;;;5025685;28;20286;-79
2023/03/24 00:31:08;;;;;;;;;;;10.90;99.90;;;;;;5033311;28;19932;-78
2023/03/24 00:33:34;;;;;;;;;;;10.90;99.90;;;;;;5034779;28;19920;-78
2023/03/24 00:36:04;;;;;;;;;;;10.90;99.90;;;;;;5047425;28;19926;-78
2023/03/24 00:38:30;;;;;;;;;;;11.00;99.90;;;;;;5019781;28;19924;-79
2023/03/24 00:40:57;;;;;;;;;;;11.00;99.90;;;;;;5033742;28;19921;-79
2023/03/24 00:43:23;;;;;;;;;;;10.90;99.90;;;;;;5047838;28;19956;-78
2023/03/24 00:45:51;;;;;;;;;;;10.90;99.90;;;;;;5050371;28;19960;-79
2023/03/24 00:48:18;;;;;;;;;;;10.90;99.90;;;;;;5022275;28;19931;-78
2023/03/24 00:50:45;;;;;;;;;;;10.90;99.90;;;;;;5023155;28;19928;-78
2023/03/24 00:53:14;;;;;;;;;;;10.80;99.90;;;;;;5042101;28;19921;-78
2023/03/24 00:55:41;;;;;;;;;;;10.90;99.90;;;;;;5032453;28;20051;-78
2023/03/24 00:58:06;;;;;;;;;;;10.80;99.90;;;;;;5022081;28;19925;-79
2023/03/24 01:00:32;;;;;;;;;;;10.80;99.90;;;;;;5044731;28;20422;-78
2023/03/24 01:02:57;;;;;;;;;;;10.90;99.90;;;;;;5029266;28;19952;-78
2023/03/24 01:05:27;;;;;;;;;;;10.80;99.90;;;;;;5029872;28;19920;-78
2023/03/24 01:07:57;;;;;;;;;;;10.80;99.90;;;;;;5016025;28;19925;-78
2023/03/24 01:10:25;;;;;;;;;;;10.80;99.90;;;;;;5036071;28;19925;-77
2023/03/24 01:12:52;;;;;;;;;;;10.80;99.90;;;;;;5042417;28;19920;-78
2023/03/24 01:15:19;;;;;;;;;;;10.80;99.90;;;;;;5049868;28;20008;-78
2023/03/24 01:17:45;;;;;;;;;;;10.90;99.90;;;;;;5020897;28;20374;-78
2023/03/24 01:20:11;;;;;;;;;;;10.90;99.90;;;;;;5039197;28;19947;-78
2023/03/24 01:22:38;;;;;;;;;;;10.80;99.90;;;;;;5038582;28;20379;-79
2023/03/24 01:25:04;;;;;;;;;;;10.80;99.90;;;;;;5034305;28;19921;-78
2023/03/24 01:27:30;;;;;;;;;;;10.80;99.90;;;;;;5029574;28;19974;-78
2023/03/24 01:30:00;;;;;;;;;;;10.80;99.90;;;;;;5049948;28;20015;-78
2023/03/24 01:32:26;;;;;;;;;;;10.90;99.90;;;;;;5056827;28;19956;-78
2023/03/24 01:34:52;;;;;;;;;;;10.90;99.90;;;;;;5030402;28;19925;-79
2023/03/24 01:37:18;;;;;;;;;;;10.90;99.90;;;;;;5033589;28;19931;-78
2023/03/24 01:39:43;;;;;;;;;;;10.90;99.90;;;;;;5040915;28;19921;-78
2023/03/24 01:42:15;;;;;;;;;;;10.90;99.90;;;;;;5031467;28;19976;-78
2023/03/24 01:44:41;;;;;;;;;;;11.00;99.90;;;;;;5036771;28;19965;-78
2023/03/24 01:47:07;;;;;;;;;;;10.90;99.90;;;;;;5032542;28;19928;-78
2023/03/24 01:49:37;;;;;;;;;;;10.90;99.90;;;;;;5020270;28;19965;-79
2023/03/24 01:52:06;;;;;;;;;;;10.90;99.90;;;;;;5031149;28;19963;-78
2023/03/24 01:54:32;;;;;;;;;;;11.00;99.90;;;;;;5033014;28;19955;-78
2023/03/24 01:57:06;;;;;;;;;;;11.00;99.90;;;;;;5023520;28;19964;-78
2023/03/24 01:59:35;;;;;;;;;;;11.00;99.90;;;;;;5043098;28;20321;-80
2023/03/24 02:02:02;;;;;;;;;;;11.00;99.90;;;;;;5049584;28;19925;-79
2023/03/24 02:04:29;;;;;;;;;;;11.00;99.90;;;;;;5032049;28;19937;-78
2023/03/24 02:06:55;;;;;;;;;;;10.90;99.90;;;;;;5014149;28;19928;-78
2023/03/24 02:09:21;;;;;;;;;;;11.10;99.90;;;;;;5038767;28;20310;-78
2023/03/24 02:11:46;;;;;;;;;;;10.90;99.90;;;;;;5037440;28;20015;-78
2023/03/24 02:14:12;;;;;;;;;;;11.00;99.90;;;;;;5031521;28;19998;-78
2023/03/24 02:16:48;;;;;;;;;;;11.00;99.90;;;;;;5015063;28;20008;-78
2023/03/24 02:19:37;;;;;;;;;;;10.90;99.90;;;;;;5046117;28;19933;-79
2023/03/24 02:22:21;;;;;;;;;;;11.00;99.90;;;;;;5048545;28;19921;-77
2023/03/24 02:24:57;;;;;;;;;;;11.00;99.90;;;;;;5043985;28;19936;-78
2023/03/24 02:27:42;;;;;;;;;;;11.10;99.90;;;;;;5012585;28;19924;-80
2023/03/24 02:30:27;;;;;;;;;;;10.90;99.90;;;;;;5029333;28;20292;-78
2023/03/24 02:33:12;;;;;;;;;;;11.00;99.90;;;;;;5029683;28;19963;-78
2023/03/24 02:35:38;;;;;;;;;;;11.00;99.90;;;;;;5035551;28;19924;-80
2023/03/24 02:38:22;;;;;;;;;;;11.00;99.90;;;;;;5021259;28;19931;-79
2023/03/24 02:40:50;;;;;;;;;;;11.00;99.90;;;;;;5033189;28;19936;-79
2023/03/24 02:43:16;;;;;;;;;;;11.10;99.90;;;;;;5032055;28;19921;-79
2023/03/24 02:46:00;;;;;;;;;;;11.00;99.90;;;;;;5048112;28;20472;-79
2023/03/24 02:48:26;;;;;;;;;;;11.10;99.90;;;;;;5022111;28;19921;-78
2023/03/24 02:50:51;;;;;;;;;;;11.10;99.90;;;;;;5032839;28;19921;-82
2023/03/24 02:53:20;;;;;;;;;;;11.10;99.90;;;;;;5037866;28;19931;-78
2023/03/24 02:55:51;;;;;;;;;;;11.10;99.90;;;;;;5045948;28;19928;-80
2023/03/24 02:58:20;;;;;;;;;;;11.20;99.90;;;;;;5027915;28;19999;-78
2023/03/24 03:00:49;;;;;;;;;;;11.10;99.90;;;;;;5032828;28;19921;-78
2023/03/24 03:03:20;;;;;;;;;;;11.20;99.90;;;;;;5028988;28;20433;-78
2023/03/24 03:05:50;;;;;;;;;;;11.20;99.90;;;;;;5032639;28;19924;-79
2023/03/24 03:08:17;;;;;;;;;;;11.20;99.90;;;;;;5018300;28;19987;-79
2023/03/24 03:10:45;;;;;;;;;;;11.20;99.90;;;;;;5032233;28;20024;-79
2023/03/24 03:13:15;;;;;;;;;;;11.30;99.90;;;;;;5047640;28;19940;-78
2023/03/24 03:15:43;;;;;;;;;;;11.30;99.90;;;;;;5032313;28;20369;-78
2023/03/24 03:18:16;;;;;;;;;;;11.40;99.90;;;;;;5019766;28;19921;-79
2023/03/24 03:20:49;;;;;;;;;;;11.30;99.90;;;;;;5042988;28;19925;-78
2023/03/24 03:23:17;;;;;;;;;;;11.30;99.90;;;;;;5037448;28;19972;-77
2023/03/24 03:25:49;;;;;;;;;;;11.20;99.90;;;;;;5043149;28;19983;-78
2023/03/24 03:28:19;;;;;;;;;;;11.20;99.90;;;;;;5013533;28;20261;-76
2023/03/24 03:30:56;;;;;;;;;;;11.20;99.90;;;;;;5044798;28;20332;-76
2023/03/24 03:33:51;;;;;;;;;;;11.00;99.90;;;;;;5042658;28;19927;-77
2023/03/24 03:36:21;;;;;;;;;;;10.90;99.90;;;;;;5001782;28;19932;-78
2023/03/24 03:38:53;;;;;;;;;;;10.90;99.90;;;;;;5047812;28;19971;-77
2023/03/24 03:41:19;;;;;;;;;;;10.80;99.90;;;;;;5034031;28;19925;-78
2023/03/24 03:43:45;;;;;;;;;;;10.80;99.90;;;;;;5029965;28;20387;-77
2023/03/24 03:46:11;;;;;;;;;;;10.70;99.90;;;;;;5042062;28;19967;-77
2023/03/24 03:48:37;;;;;;;;;;;10.70;99.90;;;;;;5031014;28;19925;-77
2023/03/24 03:51:03;;;;;;;;;;;10.70;99.90;;;;;;5034816;28;20350;-79
2023/03/24 03:53:36;;;;;;;;;;;10.60;99.90;;;;;;5032031;28;19921;-77
2023/03/24 03:56:03;;;;;;;;;;;10.50;99.90;;;;;;5032805;28;19967;-78
2023/03/24 03:58:28;;;;;;;;;;;10.50;99.90;;;;;;5026840;28;20429;-77
2023/03/24 04:00:54;;;;;;;;;;;10.50;99.90;;;;;;5041923;28;19921;-77
2023/03/24 04:03:23;;;;;;;;;;;10.40;99.90;;;;;;5032817;28;20294;-77
2023/03/24 04:06:04;;;;;;;;;;;10.30;99.90;;;;;;5030762;28;19924;-78
2023/03/24 04:08:49;;;;;;;;;;;10.30;99.90;;;;;;5024575;28;20004;-78
2023/03/24 04:11:27;;;;;;;;;;;10.20;99.90;;;;;;5035810;28;19925;-78
2023/03/24 04:14:11;;;;;;;;;;;10.10;99.90;;;;;;5033136;28;19929;-78
2023/03/24 04:16:43;;;;;;;;;;;10.10;99.90;;;;;;5018681;28;20657;-77
2023/03/24 04:19:12;;;;;;;;;;;10.00;99.90;;;;;;5043979;28;19932;-77
2023/03/24 04:21:57;;;;;;;;;;;10.00;99.90;;;;;;5031236;28;20391;-77
2023/03/24 04:24:27;;;;;;;;;;;9.90;99.90;;;;;;5040969;28;20405;-77
2023/03/24 04:26:55;;;;;;;;;;;9.90;99.90;;;;;;5023934;28;20363;-77
2023/03/24 04:29:45;;;;;;;;;;;9.80;99.90;;;;;;5030772;28;19923;-80
2023/03/24 04:32:18;;;;;;;;;;;9.70;99.90;;;;;;5050563;28;20517;-77
2023/03/24 04:34:49;;;;;;;;;;;9.70;99.90;;;;;;5030404;28;19979;-77
2023/03/24 04:37:23;;;;;;;;;;;9.60;99.90;;;;;;5015787;28;19921;-77
2023/03/24 04:39:49;;;;;;;;;;;9.60;99.90;;;;;;5046402;28;19921;-77
2023/03/24 04:42:19;;;;;;;;;;;9.50;99.90;;;;;;5033638;28;19925;-78
2023/03/24 04:44:45;;;;;;;;;;;9.50;99.90;;;;;;5048374;28;19920;-77
2023/03/24 04:47:11;;;;;;;;;;;9.40;99.90;;;;;;5028215;28;20124;-77
2023/03/24 04:49:40;;;;;;;;;;;9.40;99.90;;;;;;5043462;28;19928;-77
2023/03/24 04:52:06;;;;;;;;;;;9.30;99.90;;;;;;5029768;28;19921;-77
2023/03/24 04:54:32;;;;;;;;;;;9.30;99.90;;;;;;5036059;28;20353;-77
2023/03/24 04:57:00;;;;;;;;;;;9.20;99.90;;;;;;5027510;28;20011;-77
2023/03/24 04:59:31;;;;;;;;;;;9.10;99.90;;;;;;5037864;28;19936;-77
2023/03/24 05:01:56;;;;;;;;;;;9.10;99.90;;;;;;5030681;28;19921;-78
2023/03/24 05:04:23;;;;;;;;;;;9.10;99.90;;;;;;5029970;28;19947;-77
2023/03/24 05:06:49;;;;;;;;;;;9.10;99.90;;;;;;5018439;28;20312;-77
2023/03/24 05:09:20;;;;;;;;;;;9.10;99.90;;;;;;5042291;28;19921;-78
2023/03/24 05:11:46;;;;;;;;;;;9.10;99.90;;;;;;5030710;28;19921;-77
2023/03/24 05:14:11;;;;;;;;;;;9.00;99.90;;;;;;5028996;28;20353;-77
2023/03/24 05:16:37;;;;;;;;;;;9.00;99.90;;;;;;5016639;28;19925;-78
2023/03/24 05:19:03;;;;;;;;;;;9.00;99.90;;;;;;5042823;28;19931;-77
2023/03/24 05:21:28;;;;;;;;;;;9.00;99.90;;;;;;5030155;28;19921;-78
2023/03/24 05:23:54;;;;;;;;;;;8.90;99.90;;;;;;5036290;28;19931;-77
2023/03/24 05:26:19;;;;;;;;;;;8.90;99.90;;;;;;5019117;28;19921;-77
2023/03/24 05:28:45;;;;;;;;;;;9.00;99.90;;;;;;5003112;28;20432;-77
2023/03/24 05:31:11;;;;;;;;;;;9.00;99.90;;;;;;5043027;28;19932;-77
2023/03/24 05:33:36;;;;;;;;;;;9.10;99.90;;;;;;5061502;28;19944;-77
2023/03/24 05:36:02;;;;;;;;;;;9.10;99.90;;;;;;5033969;28;20362;-77
2023/03/24 05:38:28;;;;;;;;;;;9.20;99.90;;;;;;5028817;28;19931;-78
2023/03/24 05:40:57;;;;;;;;;;;9.20;99.90;;;;;;5033184;28;19921;-78
2023/03/24 05:43:22;;;;;;;;;;;9.20;99.90;;;;;;5028255;28;19964;-77
2023/03/24 05:45:48;;;;;;;;;;;9.20;99.90;;;;;;5046976;28;19963;-77
2023/03/24 05:48:14;;;;;;;;;;;9.20;99.90;;;;;;5023143;28;19928;-78
2023/03/24 05:50:40;;;;;;;;;;;9.30;99.90;;;;;;5036446;28;19955;-77
2023/03/24 05:53:05;;;;;;;;;;;9.30;99.90;;;;;;5043611;28;19946;-79
2023/03/24 05:55:31;;;;;;;;;;;9.30;99.90;;;;;;5038550;28;19960;-78
2023/03/24 05:57:57;;;;;;;;;;;9.30;99.90;;;;;;5020865;28;19925;-77
2023/03/24 06:00:23;;;;;;;;;;;9.20;99.90;;;;;;5040024;28;20279;-76
2023/03/24 06:02:49;;;;;;;;;;;9.30;99.90;;;;;;5030761;28;19921;-78
2023/03/24 06:05:15;;;;;;;;;;;9.20;99.90;;;;;;5026962;28;20489;-78
2023/03/24 06:07:43;;;;;;;;;;;9.20;99.90;;;;;;5013718;28;19921;-78
2023/03/24 06:10:10;;;;;;;;;;;9.10;99.90;;;;;;5046984;28;20022;-79
2023/03/24 06:12:36;;;;;;;;;;;9.10;99.90;;;;;;5040511;28;19927;-78
2023/03/24 06:15:02;;;;;;;;;;;9.10;99.90;;;;;;5025737;28;19921;-77
2023/03/24 06:17:29;;;;;;;;;;;9.10;99.90;;;;;;5019123;28;19924;-78
2023/03/24 06:20:01;;;;;;;;;;;9.20;99.90;;;;;;5028588;28;19921;-77
2023/03/24 06:22:27;;;;;;;;;;;9.10;99.90;;;;;;5036325;28;19920;-78
2023/03/24 06:24:55;;;;;;;;;;;9.10;99.90;;;;;;5036816;28;19935;-77
2023/03/24 06:27:24;;;;;;;;;;;9.10;99.90;;;;;;5020536;28;20329;-78
2023/03/24 06:29:50;;;;;;;;;;;9.10;99.90;;;;;;5043083;28;19925;-78
2023/03/24 06:32:19;;;;;;;;;;;9.10;99.90;;;;;;5036126;28;20371;-78
2023/03/24 06:34:44;;;;;;;;;;;9.10;99.90;;;;;;5032091;28;19935;-77
2023/03/24 06:37:10;;;;;;;;;;;9.10;99.90;;;;;;5025689;28;19921;-76
2023/03/24 06:39:36;;;;;;;;;;;9.10;99.90;;;;;;5036583;28;19921;-78
2023/03/24 06:42:02;;;;;;;;;;;9.20;99.90;;;;;;5037849;28;19974;-76
2023/03/24 06:44:28;;;;;;;;;;;9.10;99.90;;;;;;5043976;28;20330;-77
2023/03/24 06:46:53;;;;;;;;;;;9.20;99.90;;;;;;5014015;28;19928;-76
2023/03/24 06:49:19;;;;;;;;;;;9.20;99.90;;;;;;5034672;28;19975;-78
2023/03/24 06:51:45;;;;;;;;;;;9.20;99.90;;;;;;5028468;28;19925;-78
2023/03/24 06:54:10;;;;;;;;;;;9.20;99.90;;;;;;5028524;28;19928;-77
2023/03/24 06:56:36;;;;;;;;;;;9.20;99.90;;;;;;5008871;28;20376;-76
2023/03/24 06:59:02;;;;;;;;;;;9.20;99.90;;;;;;5026444;28;19928;-76
2023/03/24 07:01:28;;;;;;;;;;;9.20;99.90;;;;;;5028985;28;20276;-76
2023/03/24 07:03:54;;;;;;;;;;;9.30;99.90;;;;;;5040382;28;19921;-79
2023/03/24 07:06:21;;;;;;;;;;;9.30;99.90;;;;;;5023890;28;19928;-78
2023/03/24 07:08:47;;;;;;;;;;;9.30;99.90;;;;;;5027992;28;19970;-79
2023/03/24 07:11:13;;;;;;;;;;;9.30;99.90;;;;;;5029400;28;19986;-78
2023/03/24 07:13:39;;;;;;;;;;;9.40;99.90;;;;;;5030081;28;19975;-77
2023/03/24 07:16:05;;;;;;;;;;;9.40;99.90;;;;;;5035014;28;20013;-80
2023/03/24 07:18:30;;;;;;;;;;;9.30;99.90;;;;;;5018039;28;20372;-77
2023/03/24 07:20:56;;;;;;;;;;;9.40;99.90;;;;;;5039635;28;19971;-77
2023/03/24 07:23:22;;;;;;;;;;;9.40;99.90;;;;;;5034838;28;19921;-77
2023/03/24 07:25:47;;;;;;;;;;;9.40;99.90;;;;;;5041942;28;20420;-77
2023/03/24 07:28:13;;;;;;;;;;;9.40;99.90;;;;;;5017542;28;19925;-77
2023/03/24 07:30:38;;;;;;;;;;;9.50;99.90;;;;;;5036899;28;19921;-77
2023/03/24 07:33:05;;;;;;;;;;;9.50;99.90;;;;;;5041258;28;20012;-77
2023/03/24 07:35:30;;;;;;;;;;;9.50;99.90;;;;;;5033320;28;19925;-76
2023/03/24 07:38:00;;;;;;;;;;;9.60;99.90;;;;;;5022593;28;20378;-76
2023/03/24 07:40:25;;;;;;;;;;;9.60;99.90;;;;;;5037492;28;20403;-77
2023/03/24 07:42:51;;;;;;;;;;;9.60;99.90;;;;;;5038732;28;19920;-77
2023/03/24 07:45:17;;;;;;;;;;;9.60;99.90;;;;;;5029458;28;19931;-75
2023/03/24 07:47:44;;;;;;;;;;;9.60;99.90;;;;;;5016723;28;20145;-78
2023/03/24 07:50:10;;;;;;;;;;;9.60;99.90;;;;;;5037227;28;20286;-79
2023/03/24 07:52:36;;;;;;;;;;;9.60;99.90;;;;;;5036979;28;19921;-76
2023/03/24 07:55:01;;;;;;;;;;;9.70;99.90;;;;;;5040880;28;20008;-77
2023/03/24 07:57:27;;;;;;;;;;;9.70;99.90;;;;;;5021058;28;20107;-77
2023/03/24 07:59:52;;;;;;;;;;;9.70;99.90;;;;;;5042198;28;19932;-76
2023/03/24 08:02:19;;;;;;;;;;;9.70;99.90;;;;;;5035624;28;19943;-77
2023/03/24 08:04:45;;;;;;;;;;;9.80;99.90;;;;;;5041165;28;19975;-76
2023/03/24 08:07:12;;;;;;;;;;;9.90;99.90;;;;;;5022804;28;20019;-80
2023/03/24 08:09:39;;;;;;;;;;;9.80;99.90;;;;;;5036391;28;19960;-77
2023/03/24 08:12:05;;;;;;;;;;;9.80;99.90;;;;;;5043397;28;20343;-79
2023/03/24 08:14:30;;;;;;;;;;;9.80;99.90;;;;;;5036766;28;20236;-78
2023/03/24 08:16:56;;;;;;;;;;;9.90;99.90;;;;;;5031199;28;19932;-77
2023/03/24 08:19:21;;;;;;;;;;;9.90;99.90;;;;;;5060389;28;19927;-79
2023/03/24 08:21:47;;;;;;;;;;;9.90;99.90;;;;;;5042372;28;20331;-78
2023/03/24 08:24:12;;;;;;;;;;;9.90;99.90;;;;;;5043068;28;19931;-78
2023/03/24 08:26:41;;;;;;;;;;;9.90;99.90;;;;;;5025070;28;19968;-79
2023/03/24 08:29:07;;;;;;;;;;;9.90;99.90;;;;;;5042613;28;19921;-77
2023/03/24 08:31:33;;;;;;;;;;;9.90;99.90;;;;;;5050323;28;19934;-79
2023/03/24 08:33:59;;;;;;;;;;;9.90;99.90;;;;;;5048223;28;19928;-78
2023/03/24 08:36:25;;;;;;;;;;;10.00;99.90;;;;;;5036408;28;20481;-78
2023/03/24 08:38:53;;;;;;;;;;;10.00;99.90;;;;;;5046535;28;19935;-77
2023/03/24 08:41:19;;;;;;;;;;;10.00;99.90;;;;;;5049536;28;19938;-78
2023/03/24 08:43:45;;;;;;;;;;;10.10;99.90;;;;;;5045404;28;20604;-79
2023/03/24 08:46:11;;;;;;;;;;;10.20;99.90;;;;;;5039301;28;19997;-78
2023/03/24 08:48:39;;;;;;;;;;;10.20;99.90;;;;;;5039298;28;19928;-80
2023/03/24 08:51:09;;;;;;;;;;;10.20;99.90;;;;;;5045162;28;20364;-79
2023/03/24 08:53:34;;;;;;;;;;;10.50;99.90;;;;;;5045283;28;20420;-79
2023/03/24 08:56:00;;;;;;;;;;;10.50;99.90;;;;;;5047337;28;19928;-79
2023/03/24 08:58:25;;;;;;;;;;;10.50;99.90;;;;;;5030934;28;20503;-78
2023/03/24 09:00:51;;;;;;;;;;;10.40;99.90;;;;;;5047633;28;20293;-79
2023/03/24 09:03:20;;;;;;;;;;;10.50;99.90;;;;;;5047755;28;20017;-79
2023/03/24 09:05:46;;;;;;;;;;;10.60;99.90;;;;;;5045916;28;19997;-78
2023/03/24 09:08:13;;;;;;;;;;;10.40;99.90;;;;;;5030122;28;21916;-79
2023/03/24 09:10:39;;;;;;;;;;;10.50;99.90;;;;;;5049375;28;19924;-77
2023/03/24 09:13:05;;;;;;;;;;;10.80;99.90;;;;;;5043449;28;19928;-80
2023/03/24 09:15:31;;;;;;;;;;;10.80;99.90;;;;;;5047377;28;20386;-81
2023/03/24 09:17:56;;;;;;;;;;;10.60;99.90;;;;;;5031396;28;19920;-77
2023/03/24 09:20:22;;;;;;;;;;;10.60;99.90;;;;;;5049413;28;19951;-78
2023/03/24 09:22:47;;;;;;;;;;;10.60;99.90;;;;;;5047561;28;19928;-79
2023/03/24 09:25:15;;;;;;;;;;;10.70;99.90;;;;;;5046343;28;19928;-81
2023/03/24 09:27:41;;;;;;;;;;;10.70;99.90;;;;;;5026216;28;20318;-77
2023/03/24 09:30:08;;;;;;;;;;;10.60;99.90;;;;;;5047392;28;20009;-79
2023/03/24 09:32:34;;;;;;;;;;;10.60;99.90;;;;;;5046874;28;19928;-81
2023/03/24 09:35:00;;;;;;;;;;;10.50;99.90;;;;;;5045978;28;19934;-79
2023/03/24 09:37:30;;;;;;;;;;;10.40;99.90;;;;;;5032615;28;19920;-78
2023/03/24 09:39:57;;;;;;;;;;;10.60;99.90;;;;;;5047060;28;19928;-79
2023/03/24 09:42:25;;;;;;;;;;;10.70;99.90;;;;;;5048381;28;20010;-78
2023/03/24 09:44:55;;;;;;;;;;;10.80;99.90;;;;;;5047330;28;19928;-80
2023/03/24 09:47:29;;;;;;;;;;;10.80;99.90;;;;;;5029745;28;19928;-77
2023/03/24 09:49:57;;;;;;;;;;;10.80;99.90;;;;;;5048105;28;19928;-79
2023/03/24 09:52:26;;;;;;;;;;;11.10;99.90;;;;;;5046123;28;20519;-78
2023/03/24 09:54:57;;;;;;;;;;;11.10;99.90;;;;;;5048552;28;19924;-79
2023/03/24 09:57:43;;;;;;;;;;;11.10;99.90;;;;;;5031196;28;19935;-79
2023/03/24 10:00:21;;;;;;;;;;;11.20;99.90;;;;;;5046696;28;19921;-79
2023/03/24 10:02:47;;;;;;;;;;;11.50;99.90;;;;;;5046138;28;19928;-79
2023/03/24 10:05:19;;;;;;;;;;;11.70;99.90;;;;;;5048701;28;20565;-78
2023/03/24 10:07:49;;;;;;;;;;;11.90;99.90;;;;;;5030364;28;20496;-79
2023/03/24 10:10:29;;;;;;;;;;;11.90;99.90;;;;;;5043589;28;20025;-79
2023/03/24 10:12:59;;;;;;;;;;;11.80;99.90;;;;;;5046015;28;20323;-78
2023/03/24 10:15:39;;;;;;;;;;;12.50;99.90;;;;;;5045432;28;19928;-79
2023/03/24 10:18:05;;;;;;;;;;;12.60;99.90;;;;;;5031139;28;19971;-80
2023/03/24 10:20:44;;;;;;;;;;;12.70;99.90;;;;;;5047118;28;20045;-79
2023/03/24 10:23:09;;;;;;;;;;;12.40;99.90;;;;;;5046046;28;20477;-79
2023/03/24 10:25:45;;;;;;;;;;;12.20;99.90;;;;;;5047919;28;19928;-78
2023/03/24 10:28:15;;;;;;;;;;;12.00;99.90;;;;;;5030927;28;20386;-79
2023/03/24 10:30:42;;;;;;;;;;;11.90;99.90;;;;;;5046984;28;19939;-78
2023/03/24 10:33:12;;;;;;;;;;;11.70;99.90;;;;;;5045049;28;19924;-79
2023/03/24 10:35:42;;;;;;;;;;;11.90;99.90;;;;;;5039519;28;20271;-78
2023/03/24 10:38:15;;;;;;;;;;;11.70;99.90;;;;;;5030516;28;20530;-80
2023/03/24 10:40:41;;;;;;;;;;;11.50;99.90;;;;;;5046214;28;19920;-78
2023/03/24 10:43:07;;;;;;;;;;;11.50;99.90;;;;;;5046349;28;19928;-78
2023/03/24 10:45:33;;;;;;;;;;;11.50;99.90;;;;;;5047596;28;19982;-79
2023/03/24 10:48:00;;;;;;;;;;;11.60;99.90;;;;;;5031758;28;20462;-80
2023/03/24 10:50:27;;;;;;;;;;;11.70;99.90;;;;;;5046382;28;19928;-78
2023/03/24 10:52:54;;;;;;;;;;;12.00;99.90;;;;;;5038777;28;19921;-80
2023/03/24 10:55:22;;;;;;;;;;;11.90;99.90;;;;;;5052709;28;19950;-77
2023/03/24 10:57:55;;;;;;;;;;;11.70;99.90;;;;;;5034649;28;19951;-80
2023/03/24 11:00:30;;;;;;;;;;;12.30;99.90;;;;;;5052317;28;19928;-78
2023/03/24 11:03:00;;;;;;;;;;;12.90;99.90;;;;;;5050265;28;19921;-77
2023/03/24 11:05:36;;;;;;;;;;;13.60;99.90;;;;;;5051541;28;19927;-78
2023/03/24 11:08:14;;;;;;;;;;;13.80;99.90;;;;;;5033930;28;19928;-80
2023/03/24 11:10:39;;;;;;;;;;;13.50;99.90;;;;;;5052417;28;19935;-78
2023/03/24 11:13:15;;;;;;;;;;;13.60;99.90;;;;;;5048957;28;19928;-79
2023/03/24 11:15:50;;;;;;;;;;;13.60;99.90;;;;;;5050725;28;19935;-81
2023/03/24 11:18:16;;;;;;;;;;;13.40;99.90;;;;;;5031680;28;19982;-79
2023/03/24 11:20:44;;;;;;;;;;;13.10;99.90;;;;;;5052281;28;20392;-78
2023/03/24 11:23:15;;;;;;;;;;;13.10;99.90;;;;;;5045714;28;20073;-77
2023/03/24 11:25:44;;;;;;;;;;;13.40;99.90;;;;;;5051150;28;19981;-79
2023/03/24 11:28:16;;;;;;;;;;;12.80;99.90;;;;;;5035005;28;19928;-78
2023/03/24 11:30:45;;;;;;;;;;;12.60;99.90;;;;;;5051418;28;19960;-77
2023/03/24 11:33:16;;;;;;;;;;;12.90;99.90;;;;;;5050867;28;19938;-79
2023/03/24 11:35:42;;;;;;;;;;;12.90;99.90;;;;;;5049988;28;19920;-79
2023/03/24 11:38:08;;;;;;;;;;;13.10;99.90;;;;;;5035056;28;20435;-78
2023/03/24 11:40:33;;;;;;;;;;;13.40;99.90;;;;;;5050463;28;20336;-77
2023/03/24 11:43:00;;;;;;;;;;;13.40;99.90;;;;;;5050648;28;19928;-77
2023/03/24 11:45:27;;;;;;;;;;;13.10;99.90;;;;;;5041366;28;19974;-76
2023/03/24 11:47:55;;;;;;;;;;;13.00;99.90;;;;;;5032590;28;20451;-78
2023/03/24 11:50:24;;;;;;;;;;;13.30;99.90;;;;;;5049130;28;19925;-77
2023/03/24 11:53:16;;;;;;;;;;;13.30;99.90;;;;;;5048197;28;19928;-78
2023/03/24 11:56:01;;;;;;;;;;;13.40;99.90;;;;;;5047425;28;20398;-80
2023/03/24 11:58:33;;;;;;;;;;;13.70;99.90;;;;;;5031770;28;20405;-77
2023/03/24 12:01:00;;;;;;;;;;;13.70;99.90;;;;;;5050346;28;19982;-78
2023/03/24 12:03:36;;;;;;;;;;;13.60;99.90;;;;;;5049095;28;19927;-78
2023/03/24 12:06:15;;;;;;;;;;;13.50;99.90;;;;;;5048688;28;19928;-80
2023/03/24 12:08:40;;;;;;;;;;;13.60;99.90;;;;;;5033814;28;19928;-81
2023/03/24 12:11:15;;;;;;;;;;;13.60;99.90;;;;;;5049627;28;19931;-80
2023/03/24 12:13:42;;;;;;;;;;;13.40;99.90;;;;;;5048200;28;20360;-80
2023/03/24 12:16:08;;;;;;;;;;;13.50;99.90;;;;;;5043167;28;20022;-77
2023/03/24 12:18:40;;;;;;;;;;;12.80;99.90;;;;;;5040508;28;19928;-80
2023/03/24 12:21:13;;;;;;;;;;;12.60;99.90;;;;;;5049502;28;19939;-77
2023/03/24 12:23:53;;;;;;;;;;;12.60;99.90;;;;;;5046628;28;20329;-79
2023/03/24 12:26:22;;;;;;;;;;;12.50;99.90;;;;;;5039516;28;19935;-80
2023/03/24 12:28:47;;;;;;;;;;;12.70;99.90;;;;;;5046755;28;19928;-78
2023/03/24 12:31:27;;;;;;;;;;;13.00;99.90;;;;;;5046734;28;19920;-76
2023/03/24 12:33:53;;;;;;;;;;;13.40;99.90;;;;;;5049131;28;19932;-78
2023/03/24 12:36:19;;;;;;;;;;;13.20;99.90;;;;;;5039762;28;19921;-79
2023/03/24 12:38:50;;;;;;;;;;;13.50;99.90;;;;;;5036649;28;20412;-77
2023/03/24 12:41:15;;;;;;;;;;;13.10;99.90;;;;;;5048930;28;19928;-78
2023/03/24 12:43:41;;;;;;;;;;;12.70;99.90;;;;;;5048425;28;19933;-77
2023/03/24 12:46:25;;;;;;;;;;;12.90;99.90;;;;;;5040856;28;19967;-78
2023/03/24 12:48:58;;;;;;;;;;;12.70;99.90;;;;;;5045803;28;20054;-82
2023/03/24 12:51:50;;;;;;;;;;;12.50;99.90;;;;;;5048939;28;20345;-77
2023/03/24 12:54:28;;;;;;;;;;;12.60;99.90;;;;;;5047885;28;19931;-78
2023/03/24 12:56:57;;;;;;;;;;;12.90;99.90;;;;;;5026727;28;20803;-77
2023/03/24 12:59:32;;;;;;;;;;;12.60;99.90;;;;;;5047996;28;19925;-77
2023/03/24 13:02:01;;;;;;;;;;;12.60;99.90;;;;;;5049577;28;19929;-78
2023/03/24 13:04:34;;;;;;;;;;;12.60;99.90;;;;;;5048313;28;19971;-77
2023/03/24 13:07:10;;;;;;;;;;;12.60;99.90;;;;;;5034120;28;19920;-76
2023/03/24 13:09:42;;;;;;;;;;;12.80;99.90;;;;;;5048103;28;19928;-79
2023/03/24 13:12:15;;;;;;;;;;;12.80;99.90;;;;;;5044295;28;19928;-80
2023/03/24 13:14:50;;;;;;;;;;;12.90;99.90;;;;;;5040475;28;19955;-79
2023/03/24 13:17:18;;;;;;;;;;;12.80;99.90;;;;;;5031640;28;20010;-76
2023/03/24 13:19:45;;;;;;;;;;;12.40;99.90;;;;;;5048975;28;19943;-80
2023/03/24 13:22:14;;;;;;;;;;;12.20;99.90;;;;;;5049831;28;20107;-76
2023/03/24 13:24:39;;;;;;;;;;;12.20;99.90;;;;;;5048514;28;19928;-80
2023/03/24 13:27:05;;;;;;;;;;;12.40;99.90;;;;;;5028310;28;19981;-82
2023/03/24 13:29:40;;;;;;;;;;;12.40;99.90;;;;;;5049329;28;20011;-76
2023/03/24 13:32:29;;;;;;;;;;;12.60;99.90;;;;;;5047198;28;19985;-79
2023/03/24 13:35:01;;;;;;;;;;;12.70;99.90;;;;;;5038033;28;20667;-76
2023/03/24 13:37:47;;;;;;;;;;;12.60;99.90;;;;;;5026650;28;19983;-77
2023/03/24 13:40:24;;;;;;;;;;;12.70;99.90;;;;;;5046570;28;19971;-76
2023/03/24 13:42:56;;;;;;;;;;;12.80;99.90;;;;;;5046921;28;20020;-76
2023/03/24 13:45:34;;;;;;;;;;;12.90;99.90;;;;;;5041359;28;19952;-78
2023/03/24 13:48:09;;;;;;;;;;;12.70;99.90;;;;;;5027795;28;19969;-78
2023/03/24 13:50:58;;;;;;;;;;;12.80;99.90;;;;;;5044850;28;19927;-76
2023/03/24 13:53:32;;;;;;;;;;;12.90;99.90;;;;;;5018045;28;19972;-77
2023/03/24 13:55:59;;;;;;;;;;;13.10;99.90;;;;;;5043246;28;19929;-80
2023/03/24 13:58:27;;;;;;;;;;;13.10;99.90;;;;;;5028339;28;20027;-77
2023/03/24 14:01:08;;;;;;;;;;;12.80;99.90;;;;;;5025922;28;19929;-81
2023/03/24 14:03:40;;;;;;;;;;;13.00;99.90;;;;;;5045329;28;19929;-79
2023/03/24 14:06:06;;;;;;;;;;;12.70;99.90;;;;;;5039249;28;19958;-78
2023/03/24 14:08:50;;;;;;;;;;;12.80;99.90;;;;;;5036735;28;20383;-78
2023/03/24 14:11:32;;;;;;;;;;;12.80;99.90;;;;;;5046834;28;19924;-78
2023/03/24 14:14:05;;;;;;;;;;;12.60;99.90;;;;;;5042665;28;20379;-79
2023/03/24 14:16:51;;;;;;;;;;;12.60;99.90;;;;;;5034552;28;20564;-77
2023/03/24 14:19:22;;;;;;;;;;;12.60;99.90;;;;;;5046120;28;19936;-78
2023/03/24 14:21:52;;;;;;;;;;;12.60;99.90;;;;;;5013934;28;20277;-79
2023/03/24 14:24:44;;;;;;;;;;;12.60;99.90;;;;;;5040044;28;20411;-79
2023/03/24 14:27:22;;;;;;;;;;;12.50;99.90;;;;;;5014906;28;19930;-78
2023/03/24 14:29:49;;;;;;;;;;;12.70;99.90;;;;;;5044514;28;19928;-79
2023/03/24 14:32:18;;;;;;;;;;;12.90;99.90;;;;;;5048819;28;20010;-80
2023/03/24 14:34:57;;;;;;;;;;;12.60;99.90;;;;;;5024299;28;19928;-78